sensor_id;sensor_type;location;lat;lon;timestamp;P1;durP1;ratioP1;P2;durP2;ratioP2
13408;SDS011;6775;49.574;11.170;2024-01-27T00:01:48;1.93;;;1.60;;
13408;SDS011;6775;49.574;11.170;2024-01-27T00:04:16;5.33;;;1.57;;
13408;SDS011;6775;49.574;11.170;2024-01-27T00:06:44;4.93;;;1.67;;
13408;SDS011;6775;49.574;11.170;2024-01-27T00:09:14;3.00;;;1.50;;
13408;SDS011;6775;49.574;11.170;2024-01-27T00:11:42;2.77;;;1.43;;
13408;SDS011;6775;49.574;11.170;2024-01-27T00:14:11;2.33;;;1.57;;
13408;SDS011;6775;49.574;11.170;2024-01-27T00:16:39;5.77;;;1.40;;
13408;SDS011;6775;49.574;11.170;2024-01-27T00:19:07;4.27;;;1.37;;
13408;SDS011;6775;49.574;11.170;2024-01-27T00:21:35;3.43;;;1.37;;
13408;SDS011;6775;49.574;11.170;2024-01-27T00:24:04;2.93;;;1.70;;
13408;SDS011;6775;49.574;11.170;2024-01-27T00:26:34;6.60;;;1.90;;
13408;SDS011;6775;49.574;11.170;2024-01-27T00:29:02;3.77;;;1.27;;
13408;SDS011;6775;49.574;11.170;2024-01-27T00:31:30;2.47;;;1.27;;
13408;SDS011;6775;49.574;11.170;2024-01-27T00:33:58;4.93;;;1.30;;
13408;SDS011;6775;49.574;11.170;2024-01-27T00:36:27;4.33;;;1.37;;
13408;SDS011;6775;49.574;11.170;2024-01-27T00:38:55;2.00;;;1.60;;
13408;SDS011;6775;49.574;11.170;2024-01-27T00:41:23;2.50;;;1.40;;
13408;SDS011;6775;49.574;11.170;2024-01-27T00:43:53;7.40;;;2.10;;
13408;SDS011;6775;49.574;11.170;2024-01-27T00:46:21;5.87;;;1.83;;
13408;SDS011;6775;49.574;11.170;2024-01-27T00:48:49;5.13;;;1.73;;
13408;SDS011;6775;49.574;11.170;2024-01-27T00:51:17;2.93;;;1.43;;
13408;SDS011;6775;49.574;11.170;2024-01-27T00:53:46;3.93;;;1.30;;
13408;SDS011;6775;49.574;11.170;2024-01-27T00:56:14;2.60;;;1.40;;
13408;SDS011;6775;49.574;11.170;2024-01-27T00:58:42;3.57;;;1.43;;
13408;SDS011;6775;49.574;11.170;2024-01-27T01:01:11;4.60;;;1.70;;
13408;SDS011;6775;49.574;11.170;2024-01-27T01:03:40;4.47;;;1.70;;
13408;SDS011;6775;49.574;11.170;2024-01-27T01:06:08;2.40;;;1.17;;
13408;SDS011;6775;49.574;11.170;2024-01-27T01:08:37;4.07;;;1.60;;
13408;SDS011;6775;49.574;11.170;2024-01-27T01:11:05;4.47;;;1.67;;
13408;SDS011;6775;49.574;11.170;2024-01-27T01:13:33;4.03;;;1.50;;
13408;SDS011;6775;49.574;11.170;2024-01-27T01:16:01;4.30;;;1.50;;
13408;SDS011;6775;49.574;11.170;2024-01-27T01:18:31;7.00;;;1.77;;
13408;SDS011;6775;49.574;11.170;2024-01-27T01:21:00;3.17;;;1.47;;
13408;SDS011;6775;49.574;11.170;2024-01-27T01:23:28;2.90;;;1.60;;
13408;SDS011;6775;49.574;11.170;2024-01-27T01:25:56;2.50;;;1.60;;
13408;SDS011;6775;49.574;11.170;2024-01-27T01:28:24;4.07;;;1.50;;
13408;SDS011;6775;49.574;11.170;2024-01-27T01:30:53;3.63;;;1.67;;
13408;SDS011;6775;49.574;11.170;2024-01-27T01:33:21;2.93;;;1.60;;
13408;SDS011;6775;49.574;11.170;2024-01-27T01:35:50;3.53;;;1.50;;
13408;SDS011;6775;49.574;11.170;2024-01-27T01:38:19;5.07;;;1.37;;
13408;SDS011;6775;49.574;11.170;2024-01-27T01:40:47;4.70;;;1.70;;
13408;SDS011;6775;49.574;11.170;2024-01-27T01:43:16;6.27;;;1.90;;
13408;SDS011;6775;49.574;11.170;2024-01-27T01:45:44;4.40;;;1.70;;
13408;SDS011;6775;49.574;11.170;2024-01-27T01:48:12;1.83;;;1.37;;
13408;SDS011;6775;49.574;11.170;2024-01-27T01:50:41;3.97;;;1.77;;
13408;SDS011;6775;49.574;11.170;2024-01-27T01:53:11;2.37;;;1.63;;
13408;SDS011;6775;49.574;11.170;2024-01-27T01:55:40;3.30;;;1.60;;
13408;SDS011;6775;49.574;11.170;2024-01-27T01:58:09;3.73;;;1.60;;
13408;SDS011;6775;49.574;11.170;2024-01-27T02:00:37;5.13;;;1.53;;
13408;SDS011;6775;49.574;11.170;2024-01-27T02:03:05;3.73;;;1.40;;
13408;SDS011;6775;49.574;11.170;2024-01-27T02:05:38;2.83;;;1.30;;
13408;SDS011;6775;49.574;11.170;2024-01-27T02:08:07;3.60;;;1.40;;
13408;SDS011;6775;49.574;11.170;2024-01-27T02:10:37;4.63;;;1.60;;
13408;SDS011;6775;49.574;11.170;2024-01-27T02:13:14;4.27;;;1.43;;
13408;SDS011;6775;49.574;11.170;2024-01-27T02:15:45;2.23;;;1.17;;
13408;SDS011;6775;49.574;11.170;2024-01-27T02:18:15;3.80;;;1.67;;
13408;SDS011;6775;49.574;11.170;2024-01-27T02:20:44;2.43;;;1.30;;
13408;SDS011;6775;49.574;11.170;2024-01-27T02:23:12;3.80;;;1.50;;
13408;SDS011;6775;49.574;11.170;2024-01-27T02:25:42;2.97;;;1.67;;
13408;SDS011;6775;49.574;11.170;2024-01-27T02:28:10;4.47;;;1.97;;
13408;SDS011;6775;49.574;11.170;2024-01-27T02:30:40;5.60;;;2.13;;
13408;SDS011;6775;49.574;11.170;2024-01-27T02:33:08;4.13;;;1.60;;
13408;SDS011;6775;49.574;11.170;2024-01-27T02:35:36;4.70;;;1.57;;
13408;SDS011;6775;49.574;11.170;2024-01-27T02:38:04;4.63;;;2.27;;
13408;SDS011;6775;49.574;11.170;2024-01-27T02:40:32;3.27;;;1.50;;
13408;SDS011;6775;49.574;11.170;2024-01-27T02:43:02;4.03;;;1.67;;
13408;SDS011;6775;49.574;11.170;2024-01-27T02:45:30;4.97;;;1.40;;
13408;SDS011;6775;49.574;11.170;2024-01-27T02:47:58;4.90;;;2.17;;
13408;SDS011;6775;49.574;11.170;2024-01-27T02:50:27;3.73;;;2.00;;
13408;SDS011;6775;49.574;11.170;2024-01-27T02:52:55;5.73;;;1.73;;
13408;SDS011;6775;49.574;11.170;2024-01-27T02:55:23;6.07;;;1.97;;
13408;SDS011;6775;49.574;11.170;2024-01-27T02:57:51;6.10;;;2.00;;
13408;SDS011;6775;49.574;11.170;2024-01-27T03:00:21;4.77;;;1.67;;
13408;SDS011;6775;49.574;11.170;2024-01-27T03:02:49;5.60;;;1.80;;
13408;SDS011;6775;49.574;11.170;2024-01-27T03:05:18;8.50;;;2.13;;
13408;SDS011;6775;49.574;11.170;2024-01-27T03:07:46;3.77;;;1.70;;
13408;SDS011;6775;49.574;11.170;2024-01-27T03:10:14;2.53;;;1.70;;
13408;SDS011;6775;49.574;11.170;2024-01-27T03:12:42;3.10;;;1.57;;
13408;SDS011;6775;49.574;11.170;2024-01-27T03:15:10;5.70;;;1.67;;
13408;SDS011;6775;49.574;11.170;2024-01-27T03:17:40;5.73;;;1.80;;
13408;SDS011;6775;49.574;11.170;2024-01-27T03:20:09;5.27;;;2.00;;
13408;SDS011;6775;49.574;11.170;2024-01-27T03:22:38;6.80;;;2.10;;
13408;SDS011;6775;49.574;11.170;2024-01-27T03:25:08;2.77;;;1.53;;
13408;SDS011;6775;49.574;11.170;2024-01-27T03:27:37;5.67;;;1.90;;
13408;SDS011;6775;49.574;11.170;2024-01-27T03:30:05;7.20;;;2.20;;
13408;SDS011;6775;49.574;11.170;2024-01-27T03:32:36;6.83;;;2.17;;
13408;SDS011;6775;49.574;11.170;2024-01-27T03:35:06;4.33;;;2.27;;
13408;SDS011;6775;49.574;11.170;2024-01-27T03:37:34;7.17;;;3.27;;
13408;SDS011;6775;49.574;11.170;2024-01-27T03:40:02;5.43;;;2.57;;
13408;SDS011;6775;49.574;11.170;2024-01-27T03:42:31;5.47;;;2.60;;
13408;SDS011;6775;49.574;11.170;2024-01-27T03:45:00;10.53;;;3.30;;
13408;SDS011;6775;49.574;11.170;2024-01-27T03:47:28;6.77;;;2.83;;
13408;SDS011;6775;49.574;11.170;2024-01-27T03:49:56;5.70;;;2.70;;
13408;SDS011;6775;49.574;11.170;2024-01-27T03:52:26;3.37;;;2.13;;
13408;SDS011;6775;49.574;11.170;2024-01-27T03:54:54;7.50;;;3.83;;
13408;SDS011;6775;49.574;11.170;2024-01-27T03:57:22;7.57;;;3.17;;
13408;SDS011;6775;49.574;11.170;2024-01-27T03:59:50;5.50;;;2.43;;
13408;SDS011;6775;49.574;11.170;2024-01-27T04:02:18;4.37;;;2.20;;
13408;SDS011;6775;49.574;11.170;2024-01-27T04:04:47;5.23;;;2.63;;
13408;SDS011;6775;49.574;11.170;2024-01-27T04:07:15;6.73;;;2.50;;
13408;SDS011;6775;49.574;11.170;2024-01-27T04:09:44;5.20;;;2.63;;
13408;SDS011;6775;49.574;11.170;2024-01-27T04:12:13;7.03;;;2.47;;
13408;SDS011;6775;49.574;11.170;2024-01-27T04:14:41;6.80;;;3.17;;
13408;SDS011;6775;49.574;11.170;2024-01-27T04:17:09;4.93;;;3.00;;
13408;SDS011;6775;49.574;11.170;2024-01-27T04:19:37;4.63;;;2.70;;
13408;SDS011;6775;49.574;11.170;2024-01-27T04:22:06;4.27;;;2.13;;
13408;SDS011;6775;49.574;11.170;2024-01-27T04:24:34;3.47;;;2.00;;
13408;SDS011;6775;49.574;11.170;2024-01-27T04:27:04;2.50;;;2.00;;
13408;SDS011;6775;49.574;11.170;2024-01-27T04:29:32;4.40;;;2.10;;
13408;SDS011;6775;49.574;11.170;2024-01-27T04:32:03;8.57;;;2.77;;
13408;SDS011;6775;49.574;11.170;2024-01-27T04:34:32;5.73;;;2.70;;
13408;SDS011;6775;49.574;11.170;2024-01-27T04:37:00;4.10;;;2.50;;
13408;SDS011;6775;49.574;11.170;2024-01-27T04:39:28;3.83;;;2.13;;
13408;SDS011;6775;49.574;11.170;2024-01-27T04:41:57;4.77;;;2.07;;
13408;SDS011;6775;49.574;11.170;2024-01-27T04:44:26;3.80;;;2.03;;
13408;SDS011;6775;49.574;11.170;2024-01-27T04:46:54;5.03;;;2.30;;
13408;SDS011;6775;49.574;11.170;2024-01-27T04:49:22;5.77;;;1.97;;
13408;SDS011;6775;49.574;11.170;2024-01-27T04:51:51;4.30;;;1.93;;
13408;SDS011;6775;49.574;11.170;2024-01-27T04:54:19;4.30;;;1.93;;
13408;SDS011;6775;49.574;11.170;2024-01-27T04:56:47;4.83;;;1.90;;
13408;SDS011;6775;49.574;11.170;2024-01-27T04:59:15;3.90;;;1.70;;
13408;SDS011;6775;49.574;11.170;2024-01-27T05:01:45;4.03;;;1.63;;
13408;SDS011;6775;49.574;11.170;2024-01-27T05:04:14;2.67;;;1.63;;
13408;SDS011;6775;49.574;11.170;2024-01-27T05:06:43;4.50;;;1.97;;
13408;SDS011;6775;49.574;11.170;2024-01-27T05:09:12;3.57;;;1.57;;
13408;SDS011;6775;49.574;11.170;2024-01-27T05:11:41;3.27;;;1.70;;
13408;SDS011;6775;49.574;11.170;2024-01-27T05:14:11;2.90;;;1.90;;
13408;SDS011;6775;49.574;11.170;2024-01-27T05:16:39;5.27;;;1.83;;
13408;SDS011;6775;49.574;11.170;2024-01-27T05:19:10;6.60;;;2.30;;
13408;SDS011;6775;49.574;11.170;2024-01-27T05:21:38;4.33;;;1.83;;
13408;SDS011;6775;49.574;11.170;2024-01-27T05:24:06;4.83;;;2.30;;
13408;SDS011;6775;49.574;11.170;2024-01-27T05:26:35;4.70;;;1.83;;
13408;SDS011;6775;49.574;11.170;2024-01-27T05:29:03;4.00;;;1.70;;
13408;SDS011;6775;49.574;11.170;2024-01-27T05:31:31;5.33;;;1.70;;
13408;SDS011;6775;49.574;11.170;2024-01-27T05:33:59;4.73;;;1.97;;
13408;SDS011;6775;49.574;11.170;2024-01-27T05:36:29;3.10;;;1.90;;
13408;SDS011;6775;49.574;11.170;2024-01-27T05:38:57;3.83;;;1.90;;
13408;SDS011;6775;49.574;11.170;2024-01-27T05:41:26;4.60;;;1.93;;
13408;SDS011;6775;49.574;11.170;2024-01-27T05:43:55;3.73;;;1.70;;
13408;SDS011;6775;49.574;11.170;2024-01-27T05:46:24;2.37;;;1.70;;
13408;SDS011;6775;49.574;11.170;2024-01-27T05:48:52;8.57;;;2.53;;
13408;SDS011;6775;49.574;11.170;2024-01-27T05:51:24;4.03;;;2.17;;
13408;SDS011;6775;49.574;11.170;2024-01-27T05:53:53;5.73;;;2.10;;
13408;SDS011;6775;49.574;11.170;2024-01-27T05:56:22;5.03;;;2.60;;
13408;SDS011;6775;49.574;11.170;2024-01-27T05:58:50;5.53;;;2.03;;
13408;SDS011;6775;49.574;11.170;2024-01-27T06:01:18;7.40;;;2.27;;
13408;SDS011;6775;49.574;11.170;2024-01-27T06:03:47;6.30;;;1.80;;
13408;SDS011;6775;49.574;11.170;2024-01-27T06:06:15;6.13;;;2.60;;
13408;SDS011;6775;49.574;11.170;2024-01-27T06:08:43;4.83;;;2.90;;
13408;SDS011;6775;49.574;11.170;2024-01-27T06:11:13;7.47;;;2.87;;
13408;SDS011;6775;49.574;11.170;2024-01-27T06:13:41;5.00;;;2.50;;
13408;SDS011;6775;49.574;11.170;2024-01-27T06:16:09;3.80;;;2.30;;
13408;SDS011;6775;49.574;11.170;2024-01-27T06:18:38;5.07;;;2.07;;
13408;SDS011;6775;49.574;11.170;2024-01-27T06:21:07;5.77;;;2.00;;
13408;SDS011;6775;49.574;11.170;2024-01-27T06:23:35;3.67;;;2.20;;
13408;SDS011;6775;49.574;11.170;2024-01-27T06:26:04;4.27;;;1.90;;
13408;SDS011;6775;49.574;11.170;2024-01-27T06:28:34;5.53;;;2.00;;
13408;SDS011;6775;49.574;11.170;2024-01-27T06:31:03;2.87;;;2.00;;
13408;SDS011;6775;49.574;11.170;2024-01-27T06:33:31;5.17;;;2.30;;
13408;SDS011;6775;49.574;11.170;2024-01-27T06:36:00;3.57;;;2.70;;
13408;SDS011;6775;49.574;11.170;2024-01-27T06:38:28;3.40;;;2.17;;
13408;SDS011;6775;49.574;11.170;2024-01-27T06:40:58;5.73;;;3.20;;
13408;SDS011;6775;49.574;11.170;2024-01-27T06:43:26;4.33;;;2.30;;
13408;SDS011;6775;49.574;11.170;2024-01-27T06:45:55;4.90;;;2.70;;
13408;SDS011;6775;49.574;11.170;2024-01-27T06:48:24;4.43;;;2.40;;
13408;SDS011;6775;49.574;11.170;2024-01-27T06:50:52;4.20;;;2.00;;
13408;SDS011;6775;49.574;11.170;2024-01-27T06:53:21;6.23;;;2.53;;
13408;SDS011;6775;49.574;11.170;2024-01-27T06:55:49;3.30;;;2.53;;
13408;SDS011;6775;49.574;11.170;2024-01-27T06:58:17;3.93;;;2.00;;
13408;SDS011;6775;49.574;11.170;2024-01-27T07:00:45;10.37;;;2.97;;
13408;SDS011;6775;49.574;11.170;2024-01-27T07:03:15;4.00;;;2.83;;
13408;SDS011;6775;49.574;11.170;2024-01-27T07:05:43;4.63;;;2.67;;
13408;SDS011;6775;49.574;11.170;2024-01-27T07:08:11;3.33;;;2.20;;
13408;SDS011;6775;49.574;11.170;2024-01-27T07:10:39;5.37;;;2.27;;
13408;SDS011;6775;49.574;11.170;2024-01-27T07:13:07;8.50;;;2.67;;
13408;SDS011;6775;49.574;11.170;2024-01-27T07:15:36;6.10;;;2.67;;
13408;SDS011;6775;49.574;11.170;2024-01-27T07:18:04;6.53;;;3.13;;
13408;SDS011;6775;49.574;11.170;2024-01-27T07:20:35;3.63;;;2.63;;
13408;SDS011;6775;49.574;11.170;2024-01-27T07:23:04;5.03;;;2.60;;
13408;SDS011;6775;49.574;11.170;2024-01-27T07:25:32;8.70;;;3.33;;
13408;SDS011;6775;49.574;11.170;2024-01-27T07:28:00;11.00;;;3.80;;
13408;SDS011;6775;49.574;11.170;2024-01-27T07:30:28;5.47;;;3.47;;
13408;SDS011;6775;49.574;11.170;2024-01-27T07:32:57;6.47;;;3.20;;
13408;SDS011;6775;49.574;11.170;2024-01-27T07:35:25;5.23;;;3.20;;
13408;SDS011;6775;49.574;11.170;2024-01-27T07:37:55;8.07;;;3.37;;
13408;SDS011;6775;49.574;11.170;2024-01-27T07:40:23;3.63;;;2.37;;
13408;SDS011;6775;49.574;11.170;2024-01-27T07:42:51;6.93;;;2.67;;
13408;SDS011;6775;49.574;11.170;2024-01-27T07:45:20;5.70;;;3.10;;
13408;SDS011;6775;49.574;11.170;2024-01-27T07:47:48;5.17;;;3.07;;
13408;SDS011;6775;49.574;11.170;2024-01-27T07:50:16;5.30;;;3.10;;
13408;SDS011;6775;49.574;11.170;2024-01-27T07:52:45;4.83;;;3.00;;
13408;SDS011;6775;49.574;11.170;2024-01-27T07:55:15;6.83;;;2.83;;
13408;SDS011;6775;49.574;11.170;2024-01-27T07:57:43;4.07;;;2.70;;
13408;SDS011;6775;49.574;11.170;2024-01-27T08:00:12;4.60;;;2.70;;
13408;SDS011;6775;49.574;11.170;2024-01-27T08:02:41;5.60;;;2.77;;
13408;SDS011;6775;49.574;11.170;2024-01-27T08:05:10;3.53;;;2.90;;
13408;SDS011;6775;49.574;11.170;2024-01-27T08:07:38;7.13;;;4.30;;
13408;SDS011;6775;49.574;11.170;2024-01-27T08:10:06;8.70;;;4.20;;
13408;SDS011;6775;49.574;11.170;2024-01-27T08:12:38;6.00;;;4.20;;
13408;SDS011;6775;49.574;11.170;2024-01-27T08:15:07;7.40;;;4.20;;
13408;SDS011;6775;49.574;11.170;2024-01-27T08:17:35;6.00;;;4.63;;
13408;SDS011;6775;49.574;11.170;2024-01-27T08:20:03;6.87;;;4.47;;
13408;SDS011;6775;49.574;11.170;2024-01-27T08:22:34;5.33;;;3.50;;
13408;SDS011;6775;49.574;11.170;2024-01-27T08:25:03;6.83;;;4.10;;
13408;SDS011;6775;49.574;11.170;2024-01-27T08:27:32;5.03;;;3.63;;
13408;SDS011;6775;49.574;11.170;2024-01-27T08:30:01;8.17;;;3.87;;
13408;SDS011;6775;49.574;11.170;2024-01-27T08:32:30;3.50;;;3.20;;
13408;SDS011;6775;49.574;11.170;2024-01-27T08:34:59;8.47;;;3.40;;
13408;SDS011;6775;49.574;11.170;2024-01-27T08:37:27;4.70;;;3.57;;
13408;SDS011;6775;49.574;11.170;2024-01-27T08:39:56;4.23;;;3.30;;
13408;SDS011;6775;49.574;11.170;2024-01-27T08:42:24;5.97;;;3.63;;
13408;SDS011;6775;49.574;11.170;2024-01-27T08:44:52;5.57;;;3.63;;
13408;SDS011;6775;49.574;11.170;2024-01-27T08:47:21;6.50;;;3.90;;
13408;SDS011;6775;49.574;11.170;2024-01-27T08:49:49;4.67;;;3.60;;
13408;SDS011;6775;49.574;11.170;2024-01-27T08:52:18;4.60;;;3.37;;
13408;SDS011;6775;49.574;11.170;2024-01-27T08:54:46;5.60;;;3.40;;
13408;SDS011;6775;49.574;11.170;2024-01-27T08:57:14;5.70;;;3.43;;
13408;SDS011;6775;49.574;11.170;2024-01-27T08:59:42;5.47;;;3.63;;
13408;SDS011;6775;49.574;11.170;2024-01-27T09:02:10;5.67;;;3.33;;
13408;SDS011;6775;49.574;11.170;2024-01-27T09:04:40;6.07;;;3.33;;
13408;SDS011;6775;49.574;11.170;2024-01-27T09:07:08;6.03;;;4.13;;
13408;SDS011;6775;49.574;11.170;2024-01-27T09:09:36;5.90;;;3.77;;
13408;SDS011;6775;49.574;11.170;2024-01-27T09:12:05;4.93;;;3.83;;
13408;SDS011;6775;49.574;11.170;2024-01-27T09:14:33;6.83;;;4.30;;
13408;SDS011;6775;49.574;11.170;2024-01-27T09:17:02;5.87;;;4.00;;
13408;SDS011;6775;49.574;11.170;2024-01-27T09:19:30;7.00;;;3.57;;
13408;SDS011;6775;49.574;11.170;2024-01-27T09:22:00;3.97;;;3.03;;
13408;SDS011;6775;49.574;11.170;2024-01-27T09:24:28;5.97;;;3.30;;
13408;SDS011;6775;49.574;11.170;2024-01-27T09:26:56;7.23;;;3.33;;
13408;SDS011;6775;49.574;11.170;2024-01-27T09:29:24;4.10;;;2.50;;
13408;SDS011;6775;49.574;11.170;2024-01-27T09:31:52;4.10;;;2.50;;
13408;SDS011;6775;49.574;11.170;2024-01-27T09:34:21;4.70;;;2.80;;
13408;SDS011;6775;49.574;11.170;2024-01-27T09:36:49;5.00;;;2.60;;
13408;SDS011;6775;49.574;11.170;2024-01-27T09:39:19;8.03;;;3.07;;
13408;SDS011;6775;49.574;11.170;2024-01-27T09:41:47;4.33;;;2.47;;
13408;SDS011;6775;49.574;11.170;2024-01-27T09:44:17;6.33;;;2.63;;
13408;SDS011;6775;49.574;11.170;2024-01-27T09:46:46;6.63;;;2.43;;
13408;SDS011;6775;49.574;11.170;2024-01-27T09:49:15;2.80;;;2.10;;
13408;SDS011;6775;49.574;11.170;2024-01-27T09:51:43;5.17;;;2.20;;
13408;SDS011;6775;49.574;11.170;2024-01-27T09:54:11;3.70;;;2.00;;
13408;SDS011;6775;49.574;11.170;2024-01-27T09:56:45;5.77;;;2.30;;
13408;SDS011;6775;49.574;11.170;2024-01-27T09:59:14;5.63;;;1.73;;
13408;SDS011;6775;49.574;11.170;2024-01-27T10:01:45;3.47;;;1.80;;
13408;SDS011;6775;49.574;11.170;2024-01-27T10:04:14;5.00;;;2.00;;
13408;SDS011;6775;49.574;11.170;2024-01-27T10:06:43;6.53;;;1.87;;
13408;SDS011;6775;49.574;11.170;2024-01-27T10:09:12;6.43;;;2.07;;
13408;SDS011;6775;49.574;11.170;2024-01-27T10:11:42;6.23;;;1.90;;
13408;SDS011;6775;49.574;11.170;2024-01-27T10:14:14;8.80;;;2.20;;
13408;SDS011;6775;49.574;11.170;2024-01-27T10:16:43;4.67;;;1.70;;
13408;SDS011;6775;49.574;11.170;2024-01-27T10:19:14;2.83;;;1.50;;
13408;SDS011;6775;49.574;11.170;2024-01-27T10:21:44;5.20;;;2.10;;
13408;SDS011;6775;49.574;11.170;2024-01-27T10:24:13;4.03;;;1.90;;
13408;SDS011;6775;49.574;11.170;2024-01-27T10:26:42;2.87;;;1.80;;
13408;SDS011;6775;49.574;11.170;2024-01-27T10:29:12;7.47;;;2.03;;
13408;SDS011;6775;49.574;11.170;2024-01-27T10:31:40;5.03;;;1.67;;
13408;SDS011;6775;49.574;11.170;2024-01-27T10:34:08;5.37;;;1.90;;
13408;SDS011;6775;49.574;11.170;2024-01-27T10:36:41;5.07;;;2.03;;
13408;SDS011;6775;49.574;11.170;2024-01-27T10:39:15;5.00;;;1.97;;
13408;SDS011;6775;49.574;11.170;2024-01-27T10:41:45;3.10;;;1.60;;
13408;SDS011;6775;49.574;11.170;2024-01-27T10:44:16;4.57;;;1.90;;
13408;SDS011;6775;49.574;11.170;2024-01-27T10:46:46;4.63;;;1.90;;
13408;SDS011;6775;49.574;11.170;2024-01-27T10:49:16;5.97;;;1.70;;
13408;SDS011;6775;49.574;11.170;2024-01-27T10:51:46;7.43;;;2.30;;
13408;SDS011;6775;49.574;11.170;2024-01-27T10:54:23;5.30;;;1.87;;
13408;SDS011;6775;49.574;11.170;2024-01-27T10:56:53;7.53;;;2.13;;
13408;SDS011;6775;49.574;11.170;2024-01-27T10:59:27;4.60;;;1.60;;
13408;SDS011;6775;49.574;11.170;2024-01-27T11:01:57;4.40;;;1.70;;
13408;SDS011;6775;49.574;11.170;2024-01-27T11:04:26;4.80;;;1.53;;
13408;SDS011;6775;49.574;11.170;2024-01-27T11:06:59;4.27;;;1.70;;
13408;SDS011;6775;49.574;11.170;2024-01-27T11:09:29;4.40;;;1.70;;
13408;SDS011;6775;49.574;11.170;2024-01-27T11:11:59;6.10;;;1.50;;
13408;SDS011;6775;49.574;11.170;2024-01-27T11:14:30;6.13;;;1.70;;
13408;SDS011;6775;49.574;11.170;2024-01-27T11:16:59;5.50;;;1.57;;
13408;SDS011;6775;49.574;11.170;2024-01-27T11:19:27;4.43;;;1.97;;
13408;SDS011;6775;49.574;11.170;2024-01-27T11:22:01;5.37;;;1.73;;
13408;SDS011;6775;49.574;11.170;2024-01-27T11:24:31;5.10;;;1.30;;
13408;SDS011;6775;49.574;11.170;2024-01-27T11:27:00;4.93;;;1.67;;
13408;SDS011;6775;49.574;11.170;2024-01-27T11:29:31;6.73;;;1.77;;
13408;SDS011;6775;49.574;11.170;2024-01-27T11:32:01;3.30;;;1.50;;
13408;SDS011;6775;49.574;11.170;2024-01-27T11:34:40;5.93;;;1.87;;
13408;SDS011;6775;49.574;11.170;2024-01-27T11:37:11;4.93;;;1.50;;
13408;SDS011;6775;49.574;11.170;2024-01-27T11:39:41;3.53;;;1.23;;
13408;SDS011;6775;49.574;11.170;2024-01-27T11:42:11;6.23;;;1.77;;
13408;SDS011;6775;49.574;11.170;2024-01-27T11:44:42;5.13;;;1.77;;
13408;SDS011;6775;49.574;11.170;2024-01-27T11:47:14;3.77;;;1.23;;
13408;SDS011;6775;49.574;11.170;2024-01-27T11:49:48;3.67;;;1.40;;
13408;SDS011;6775;49.574;11.170;2024-01-27T11:52:20;3.93;;;1.33;;
13408;SDS011;6775;49.574;11.170;2024-01-27T11:54:53;4.60;;;1.30;;
13408;SDS011;6775;49.574;11.170;2024-01-27T11:57:22;3.03;;;1.10;;
13408;SDS011;6775;49.574;11.170;2024-01-27T11:59:52;3.57;;;1.27;;
13408;SDS011;6775;49.574;11.170;2024-01-27T12:02:21;6.63;;;3.20;;
13408;SDS011;6775;49.574;11.170;2024-01-27T12:04:50;7.07;;;2.90;;
13408;SDS011;6775;49.574;11.170;2024-01-27T12:07:19;4.80;;;1.73;;
13408;SDS011;6775;49.574;11.170;2024-01-27T12:09:48;5.60;;;1.57;;
13408;SDS011;6775;49.574;11.170;2024-01-27T12:12:17;4.80;;;1.90;;
13408;SDS011;6775;49.574;11.170;2024-01-27T12:14:46;8.53;;;2.00;;
13408;SDS011;6775;49.574;11.170;2024-01-27T12:17:18;5.03;;;3.00;;
13408;SDS011;6775;49.574;11.170;2024-01-27T12:19:47;4.87;;;2.20;;
13408;SDS011;6775;49.574;11.170;2024-01-27T12:22:22;2.97;;;1.50;;
13408;SDS011;6775;49.574;11.170;2024-01-27T12:24:53;3.40;;;1.77;;
13408;SDS011;6775;49.574;11.170;2024-01-27T12:27:22;3.67;;;1.60;;
13408;SDS011;6775;49.574;11.170;2024-01-27T12:29:50;6.03;;;2.20;;
13408;SDS011;6775;49.574;11.170;2024-01-27T12:32:20;4.40;;;1.80;;
13408;SDS011;6775;49.574;11.170;2024-01-27T12:34:48;3.90;;;1.50;;
13408;SDS011;6775;49.574;11.170;2024-01-27T12:37:17;3.70;;;1.50;;
13408;SDS011;6775;49.574;11.170;2024-01-27T12:39:48;3.03;;;1.27;;
13408;SDS011;6775;49.574;11.170;2024-01-27T12:42:17;4.03;;;1.13;;
13408;SDS011;6775;49.574;11.170;2024-01-27T12:44:45;4.13;;;1.40;;
13408;SDS011;6775;49.574;11.170;2024-01-27T12:47:13;3.77;;;1.53;;
13408;SDS011;6775;49.574;11.170;2024-01-27T12:49:43;8.70;;;3.87;;
13408;SDS011;6775;49.574;11.170;2024-01-27T12:52:12;7.50;;;4.07;;
13408;SDS011;6775;49.574;11.170;2024-01-27T12:54:41;12.03;;;5.33;;
13408;SDS011;6775;49.574;11.170;2024-01-27T12:57:10;7.67;;;3.80;;
13408;SDS011;6775;49.574;11.170;2024-01-27T12:59:39;6.77;;;2.30;;
13408;SDS011;6775;49.574;11.170;2024-01-27T13:02:07;4.83;;;1.63;;
13408;SDS011;6775;49.574;11.170;2024-01-27T13:04:35;3.57;;;1.40;;
13408;SDS011;6775;49.574;11.170;2024-01-27T13:07:05;3.77;;;1.60;;
13408;SDS011;6775;49.574;11.170;2024-01-27T13:09:33;4.07;;;1.20;;
13408;SDS011;6775;49.574;11.170;2024-01-27T13:12:03;2.73;;;1.40;;
13408;SDS011;6775;49.574;11.170;2024-01-27T13:14:33;4.67;;;1.57;;
13408;SDS011;6775;49.574;11.170;2024-01-27T13:17:02;3.60;;;1.30;;
13408;SDS011;6775;49.574;11.170;2024-01-27T13:19:31;4.10;;;1.50;;
13408;SDS011;6775;49.574;11.170;2024-01-27T13:21:59;3.43;;;1.20;;
13408;SDS011;6775;49.574;11.170;2024-01-27T13:24:29;5.47;;;1.90;;
13408;SDS011;6775;49.574;11.170;2024-01-27T13:26:57;3.80;;;1.43;;
13408;SDS011;6775;49.574;11.170;2024-01-27T13:29:26;4.47;;;1.50;;
13408;SDS011;6775;49.574;11.170;2024-01-27T13:31:54;2.50;;;1.23;;
13408;SDS011;6775;49.574;11.170;2024-01-27T13:34:24;3.60;;;1.23;;
13408;SDS011;6775;49.574;11.170;2024-01-27T13:36:54;2.53;;;1.13;;
13408;SDS011;6775;49.574;11.170;2024-01-27T13:39:22;3.03;;;1.30;;
13408;SDS011;6775;49.574;11.170;2024-01-27T13:41:52;3.43;;;1.40;;
13408;SDS011;6775;49.574;11.170;2024-01-27T13:44:20;4.57;;;1.50;;
13408;SDS011;6775;49.574;11.170;2024-01-27T13:46:48;3.00;;;1.17;;
13408;SDS011;6775;49.574;11.170;2024-01-27T13:49:16;4.90;;;1.60;;
13408;SDS011;6775;49.574;11.170;2024-01-27T13:51:46;4.63;;;1.27;;
13408;SDS011;6775;49.574;11.170;2024-01-27T13:54:14;2.40;;;1.20;;
13408;SDS011;6775;49.574;11.170;2024-01-27T13:56:42;3.77;;;1.20;;
13408;SDS011;6775;49.574;11.170;2024-01-27T13:59:12;3.93;;;1.33;;
13408;SDS011;6775;49.574;11.170;2024-01-27T14:01:40;2.97;;;1.33;;
13408;SDS011;6775;49.574;11.170;2024-01-27T14:04:09;4.17;;;1.33;;
13408;SDS011;6775;49.574;11.170;2024-01-27T14:06:37;6.10;;;1.43;;
13408;SDS011;6775;49.574;11.170;2024-01-27T14:09:05;5.83;;;1.20;;
13408;SDS011;6775;49.574;11.170;2024-01-27T14:11:34;2.53;;;1.47;;
13408;SDS011;6775;49.574;11.170;2024-01-27T14:14:02;4.00;;;1.23;;
13408;SDS011;6775;49.574;11.170;2024-01-27T14:16:32;3.20;;;1.00;;
13408;SDS011;6775;49.574;11.170;2024-01-27T14:19:00;4.47;;;1.00;;
13408;SDS011;6775;49.574;11.170;2024-01-27T14:21:29;3.03;;;1.03;;
13408;SDS011;6775;49.574;11.170;2024-01-27T14:23:57;3.07;;;1.20;;
13408;SDS011;6775;49.574;11.170;2024-01-27T14:26:29;2.63;;;1.03;;
13408;SDS011;6775;49.574;11.170;2024-01-27T14:28:58;3.67;;;1.13;;
13408;SDS011;6775;49.574;11.170;2024-01-27T14:31:26;4.40;;;1.70;;
13408;SDS011;6775;49.574;11.170;2024-01-27T14:33:57;2.93;;;0.90;;
13408;SDS011;6775;49.574;11.170;2024-01-27T14:36:26;2.97;;;1.23;;
13408;SDS011;6775;49.574;11.170;2024-01-27T14:38:54;4.60;;;1.43;;
13408;SDS011;6775;49.574;11.170;2024-01-27T14:41:22;4.40;;;1.40;;
13408;SDS011;6775;49.574;11.170;2024-01-27T14:43:51;3.80;;;1.20;;
13408;SDS011;6775;49.574;11.170;2024-01-27T14:46:19;5.90;;;1.67;;
13408;SDS011;6775;49.574;11.170;2024-01-27T14:48:47;6.57;;;1.70;;
13408;SDS011;6775;49.574;11.170;2024-01-27T14:51:17;6.00;;;1.57;;
13408;SDS011;6775;49.574;11.170;2024-01-27T14:53:45;3.50;;;1.83;;
13408;SDS011;6775;49.574;11.170;2024-01-27T14:56:14;2.90;;;1.83;;
13408;SDS011;6775;49.574;11.170;2024-01-27T14:58:42;5.67;;;1.70;;